Time;durP1;ratioP1;P1;durP2;ratioP2;P2;SDS_P1;SDS_P2;PMS_P1;PMS_P2;Temp;Humidity;BMP_temperature;BMP_pressure;BME280_temperature;BME280_humidity;BME280_pressure;Samples;Min_cycle;Max_cycle;Signal;HPM_P1;HPM_P2
2022/09/26 00:01:08;;;;;;;;;;;20.50;70.90;;;;;;5038148;28;1475;-67
2022/09/26 00:03:34;;;;;;;;;;;20.50;70.90;;;;;;5040348;28;1910;-68
2022/09/26 00:06:00;;;;;;;;;;;20.50;70.90;;;;;;5050969;28;1205;-68
2022/09/26 00:08:25;;;;;;;;;;;20.50;70.90;;;;;;5032393;28;898;-67
2022/09/26 00:10:57;;;;;;;;;;;20.50;70.90;;;;;;5032444;28;792;-67
2022/09/26 00:13:24;;;;;;;;;;;20.50;70.90;;;;;;5041294;28;895;-67
2022/09/26 00:15:49;;;;;;;;;;;20.50;70.90;;;;;;5044721;28;1366;-68
2022/09/26 00:18:15;;;;;;;;;;;20.50;70.90;;;;;;5041013;28;1069;-67
2022/09/26 00:20:40;;;;;;;;;;;20.50;70.90;;;;;;5038870;28;1026;-67
2022/09/26 00:23:05;;;;;;;;;;;20.50;70.90;;;;;;5041571;28;1890;-68
2022/09/26 00:25:31;;;;;;;;;;;20.50;70.90;;;;;;5039195;28;1342;-66
2022/09/26 00:27:56;;;;;;;;;;;20.50;70.90;;;;;;5042342;28;1375;-68
2022/09/26 00:30:22;;;;;;;;;;;20.50;70.90;;;;;;5039523;28;887;-68
2022/09/26 00:32:47;;;;;;;;;;;20.50;71.00;;;;;;5041127;28;1507;-68
2022/09/26 00:35:13;;;;;;;;;;;20.50;71.00;;;;;;5035856;28;1242;-68
2022/09/26 00:37:38;;;;;;;;;;;20.50;71.00;;;;;;5042105;28;863;-66
2022/09/26 00:40:04;;;;;;;;;;;20.50;70.90;;;;;;5045074;28;883;-68
2022/09/26 00:42:29;;;;;;;;;;;20.50;71.00;;;;;;5041774;28;1898;-68
2022/09/26 00:44:55;;;;;;;;;;;20.50;70.90;;;;;;5025305;28;1275;-68
2022/09/26 00:47:38;;;;;;;;;;;20.50;71.00;;;;;;5027901;28;1603;-68
2022/09/26 00:50:18;;;;;;;;;;;20.50;71.00;;;;;;5041518;28;863;-68
2022/09/26 00:52:45;;;;;;;;;;;20.50;71.00;;;;;;5040664;28;835;-69
2022/09/26 00:55:12;;;;;;;;;;;20.50;71.00;;;;;;5037092;28;1357;-68
2022/09/26 00:57:41;;;;;;;;;;;20.50;71.00;;;;;;5039553;28;816;-69
2022/09/26 01:00:08;;;;;;;;;;;20.50;71.00;;;;;;5038528;28;875;-69
2022/09/26 01:02:33;;;;;;;;;;;20.50;71.00;;;;;;5030913;28;1902;-68
2022/09/26 01:04:59;;;;;;;;;;;20.50;71.00;;;;;;5041577;28;1347;-69
2022/09/26 01:07:25;;;;;;;;;;;20.50;71.00;;;;;;5040903;28;895;-69
2022/09/26 01:09:50;;;;;;;;;;;20.50;70.90;;;;;;5040928;28;1022;-68
2022/09/26 01:12:15;;;;;;;;;;;20.50;70.90;;;;;;5048134;28;1073;-68
2022/09/26 01:14:41;;;;;;;;;;;20.50;71.00;;;;;;5041156;28;1347;-68
2022/09/26 01:17:07;;;;;;;;;;;20.50;71.00;;;;;;5049636;28;832;-68
2022/09/26 01:19:38;;;;;;;;;;;20.50;71.00;;;;;;5048749;28;848;-67
2022/09/26 01:22:16;;;;;;;;;;;20.50;71.00;;;;;;5041055;28;1918;-68
2022/09/26 01:24:44;;;;;;;;;;;20.50;71.00;;;;;;5041863;28;1344;-68
2022/09/26 01:27:16;;;;;;;;;;;20.50;71.00;;;;;;5035637;28;1357;-68
2022/09/26 01:30:00;;;;;;;;;;;20.50;71.00;;;;;;5040824;28;1064;-68
2022/09/26 01:35:20;;;;;;;;;;;20.50;71.00;;;;;;5042038;28;1296;-69
2022/09/26 01:37:48;;;;;;;;;;;20.50;71.00;;;;;;5039998;28;910;-69
2022/09/26 01:40:26;;;;;;;;;;;20.50;71.00;;;;;;5037320;28;860;-69
2022/09/26 01:43:10;;;;;;;;;;;20.50;71.00;;;;;;5039312;28;1910;-69
2022/09/26 01:45:35;;;;;;;;;;;20.50;71.00;;;;;;5038578;28;1343;-69
2022/09/26 01:48:05;;;;;;;;;;;20.50;71.10;;;;;;5042853;28;901;-67
2022/09/26 01:50:36;;;;;;;;;;;20.50;71.10;;;;;;5038606;28;879;-67
2022/09/26 01:53:05;;;;;;;;;;;20.50;71.10;;;;;;5036005;28;950;-67
2022/09/26 01:55:33;;;;;;;;;;;20.50;71.10;;;;;;5035256;28;1267;-67
2022/09/26 01:58:06;;;;;;;;;;;20.50;71.10;;;;;;5038140;28;927;-67
2022/09/26 02:00:32;;;;;;;;;;;20.50;71.10;;;;;;5041410;28;887;-68
2022/09/26 02:02:57;;;;;;;;;;;20.50;71.10;;;;;;5039517;28;1910;-69
2022/09/26 02:05:27;;;;;;;;;;;20.50;71.10;;;;;;5034584;28;1358;-69
2022/09/26 02:08:06;;;;;;;;;;;20.50;71.10;;;;;;5048445;28;1084;-68
2022/09/26 02:10:36;;;;;;;;;;;20.50;71.10;;;;;;5047730;28;850;-68
2022/09/26 02:13:03;;;;;;;;;;;20.50;71.10;;;;;;5029342;28;1291;-69
2022/09/26 02:15:29;;;;;;;;;;;20.50;71.10;;;;;;5046826;28;1343;-69
2022/09/26 02:18:01;;;;;;;;;;;20.50;71.10;;;;;;5040389;28;816;-69
2022/09/26 02:20:31;;;;;;;;;;;20.50;71.10;;;;;;5036754;28;898;-69
2022/09/26 02:22:56;;;;;;;;;;;20.50;71.10;;;;;;5041440;28;1959;-69
2022/09/26 02:25:22;;;;;;;;;;;20.50;71.10;;;;;;5036038;28;1288;-68
2022/09/26 02:27:48;;;;;;;;;;;20.50;71.10;;;;;;5039156;28;1362;-70
2022/09/26 02:30:14;;;;;;;;;;;20.50;71.10;;;;;;5039666;28;926;-68
2022/09/26 02:32:39;;;;;;;;;;;20.50;71.20;;;;;;5042097;28;1479;-69
2022/09/26 02:37:49;;;;;;;;;;;20.50;71.20;;;;;;5042489;28;820;-68
2022/09/26 02:40:14;;;;;;;;;;;20.50;71.20;;;;;;5039229;28;827;-69
2022/09/26 02:42:45;;;;;;;;;;;20.50;71.10;;;;;;5041073;28;1964;-69
2022/09/26 02:45:15;;;;;;;;;;;20.50;71.10;;;;;;5037183;28;1279;-69
2022/09/26 02:47:54;;;;;;;;;;;20.50;71.10;;;;;;5071112;28;867;-69
2022/09/26 02:50:29;;;;;;;;;;;20.50;71.20;;;;;;5046790;28;2018;-69
2022/09/26 02:53:03;;;;;;;;;;;20.50;71.10;;;;;;5037951;28;1322;-69
2022/09/26 02:55:29;;;;;;;;;;;20.50;71.20;;;;;;5038150;28;1288;-69
2022/09/26 02:58:05;;;;;;;;;;;20.50;71.20;;;;;;5037056;28;1311;-69
2022/09/26 03:00:38;;;;;;;;;;;20.50;71.20;;;;;;5040684;28;970;-69
2022/09/26 03:03:06;;;;;;;;;;;20.50;71.20;;;;;;5044235;28;1898;-69
2022/09/26 03:05:32;;;;;;;;;;;20.50;71.20;;;;;;5036166;28;1373;-69
2022/09/26 03:08:04;;;;;;;;;;;20.50;71.20;;;;;;5038299;28;905;-69
2022/09/26 03:10:29;;;;;;;;;;;20.50;71.20;;;;;;5071755;28;982;-69
2022/09/26 03:12:55;;;;;;;;;;;20.50;71.20;;;;;;5040082;28;1018;-69
2022/09/26 03:15:21;;;;;;;;;;;20.50;71.20;;;;;;5022602;28;1311;-68
2022/09/26 03:17:47;;;;;;;;;;;20.50;71.20;;;;;;5070359;28;879;-66
2022/09/26 03:20:14;;;;;;;;;;;20.50;71.20;;;;;;5040323;28;1045;-67
2022/09/26 03:22:39;;;;;;;;;;;20.50;72.00;;;;;;5039192;28;1969;-67
2022/09/26 03:25:05;;;;;;;;;;;20.50;71.20;;;;;;5034906;28;1270;-67
2022/09/26 03:27:31;;;;;;;;;;;20.50;71.20;;;;;;5047290;28;1057;-67
2022/09/26 03:29:58;;;;;;;;;;;20.50;71.20;;;;;;5036103;28;862;-68
2022/09/26 03:32:23;;;;;;;;;;;20.50;71.20;;;;;;5036877;28;1163;-68
2022/09/26 03:34:50;;;;;;;;;;;20.50;71.20;;;;;;5039448;28;1276;-67
2022/09/26 03:37:15;;;;;;;;;;;20.50;71.20;;;;;;5042467;28;906;-67
2022/09/26 03:39:42;;;;;;;;;;;20.50;71.20;;;;;;5040041;28;915;-67
2022/09/26 03:42:07;;;;;;;;;;;20.50;71.20;;;;;;5047955;28;1997;-69
2022/09/26 03:44:33;;;;;;;;;;;20.50;71.20;;;;;;5039827;28;929;-69
2022/09/26 03:46:58;;;;;;;;;;;20.50;71.20;;;;;;5039625;28;1487;-69
2022/09/26 03:49:23;;;;;;;;;;;20.50;71.20;;;;;;5039230;28;819;-69
2022/09/26 03:51:49;;;;;;;;;;;20.50;71.20;;;;;;5042271;28;1107;-69
2022/09/26 03:54:15;;;;;;;;;;;20.50;71.20;;;;;;5047215;28;848;-69
2022/09/26 03:56:40;;;;;;;;;;;20.50;71.20;;;;;;5042895;28;1258;-68
2022/09/26 03:59:06;;;;;;;;;;;20.50;71.20;;;;;;5045573;28;1227;-69
2022/09/26 04:01:32;;;;;;;;;;;20.50;71.20;;;;;;5044057;28;1910;-69
2022/09/26 04:03:57;;;;;;;;;;;20.50;71.30;;;;;;5044041;28;954;-68
2022/09/26 04:06:23;;;;;;;;;;;20.50;71.20;;;;;;5043807;28;1328;-68
2022/09/26 04:08:48;;;;;;;;;;;20.50;71.20;;;;;;5041799;28;1050;-68
2022/09/26 04:11:15;;;;;;;;;;;20.50;71.20;;;;;;5041577;28;1034;-68
2022/09/26 04:13:40;;;;;;;;;;;20.50;71.20;;;;;;5028934;28;1852;-68
2022/09/26 04:16:06;;;;;;;;;;;20.50;71.20;;;;;;5039902;28;1288;-68
2022/09/26 04:18:32;;;;;;;;;;;20.50;71.30;;;;;;5035913;28;1467;-68
2022/09/26 04:21:04;;;;;;;;;;;20.50;71.30;;;;;;5047904;28;919;-67
2022/09/26 04:23:30;;;;;;;;;;;20.50;71.20;;;;;;5035799;28;1934;-68
2022/09/26 04:26:01;;;;;;;;;;;20.50;71.30;;;;;;5041051;28;1264;-67
2022/09/26 04:28:26;;;;;;;;;;;20.50;71.30;;;;;;5040262;28;1388;-66
2022/09/26 04:30:55;;;;;;;;;;;20.50;71.30;;;;;;5024052;28;4952;-66
2022/09/26 04:33:21;;;;;;;;;;;20.50;71.30;;;;;;5040555;28;4623;-68
2022/09/26 04:35:46;;;;;;;;;;;20.50;71.30;;;;;;5041526;28;3001;-67
2022/09/26 04:38:12;;;;;;;;;;;20.50;71.30;;;;;;5030998;28;4597;-68
2022/09/26 04:40:37;;;;;;;;;;;20.50;71.30;;;;;;5042561;28;4490;-69
2022/09/26 04:43:03;;;;;;;;;;;20.50;71.30;;;;;;5040423;28;1975;-69
2022/09/26 04:45:28;;;;;;;;;;;20.50;71.30;;;;;;5038882;28;1406;-69
2022/09/26 04:47:54;;;;;;;;;;;20.50;71.30;;;;;;5038001;28;916;-69
2022/09/26 04:50:20;;;;;;;;;;;20.50;71.30;;;;;;5039526;28;850;-70
2022/09/26 04:52:45;;;;;;;;;;;20.50;71.30;;;;;;5039145;28;843;-70
2022/09/26 04:55:11;;;;;;;;;;;20.50;71.30;;;;;;5039105;28;1274;-69
2022/09/26 04:57:36;;;;;;;;;;;20.50;71.30;;;;;;5023507;28;1447;-68
2022/09/26 05:00:03;;;;;;;;;;;20.50;71.30;;;;;;5037647;28;840;-68
2022/09/26 05:02:28;;;;;;;;;;;20.50;71.30;;;;;;5041784;28;1973;-68
2022/09/26 05:04:54;;;;;;;;;;;20.50;71.40;;;;;;5037841;28;1280;-68
2022/09/26 05:07:19;;;;;;;;;;;20.50;71.40;;;;;;5040084;28;783;-68
2022/09/26 05:09:45;;;;;;;;;;;20.50;71.30;;;;;;5039482;28;844;-68
2022/09/26 05:12:12;;;;;;;;;;;20.50;71.30;;;;;;5037717;28;810;-67
2022/09/26 05:14:37;;;;;;;;;;;20.50;71.30;;;;;;5040804;28;860;-67
2022/09/26 05:17:03;;;;;;;;;;;20.50;71.30;;;;;;5043814;28;1147;-67
2022/09/26 05:19:28;;;;;;;;;;;20.50;71.30;;;;;;5041544;28;895;-67
2022/09/26 05:21:54;;;;;;;;;;;20.50;71.50;;;;;;5042138;28;1902;-67
2022/09/26 05:27:04;;;;;;;;;;;20.50;71.30;;;;;;5042483;28;1256;-67
2022/09/26 05:29:29;;;;;;;;;;;20.50;71.30;;;;;;5039272;28;1282;-66
2022/09/26 05:31:55;;;;;;;;;;;20.50;71.30;;;;;;5040007;28;971;-67
2022/09/26 05:34:21;;;;;;;;;;;20.50;71.30;;;;;;5039220;28;806;-65
2022/09/26 05:36:47;;;;;;;;;;;20.50;71.40;;;;;;5038187;28;1381;-66
2022/09/26 05:41:57;;;;;;;;;;;20.50;71.30;;;;;;5042848;28;1918;-67
2022/09/26 05:44:22;;;;;;;;;;;20.50;71.40;;;;;;5017862;28;1354;-67
2022/09/26 05:46:49;;;;;;;;;;;20.50;71.30;;;;;;5039350;28;1365;-66
2022/09/26 05:49:14;;;;;;;;;;;20.50;71.40;;;;;;5038690;28;809;-67
2022/09/26 05:51:40;;;;;;;;;;;20.50;71.30;;;;;;5038452;28;843;-68
2022/09/26 05:54:05;;;;;;;;;;;20.50;71.30;;;;;;5042731;28;819;-68
2022/09/26 05:56:31;;;;;;;;;;;20.50;71.30;;;;;;5044661;28;1699;-67
2022/09/26 05:58:56;;;;;;;;;;;20.50;71.40;;;;;;5037722;28;867;-67
2022/09/26 06:01:23;;;;;;;;;;;20.50;71.40;;;;;;5030646;28;4021;-66
2022/09/26 06:03:48;;;;;;;;;;;20.50;71.40;;;;;;5039008;28;1914;-66
2022/09/26 06:06:14;;;;;;;;;;;20.50;71.30;;;;;;5040841;28;1351;-68
2022/09/26 06:08:40;;;;;;;;;;;20.50;71.40;;;;;;5039841;28;875;-69
2022/09/26 06:11:15;;;;;;;;;;;20.50;71.40;;;;;;5037142;28;1006;-68
2022/09/26 06:13:44;;;;;;;;;;;20.50;71.40;;;;;;5032466;28;2086;-68
2022/09/26 06:16:13;;;;;;;;;;;20.50;71.40;;;;;;5038061;28;1437;-68
2022/09/26 06:18:40;;;;;;;;;;;20.50;71.40;;;;;;5038355;28;907;-70
2022/09/26 06:21:08;;;;;;;;;;;20.50;71.40;;;;;;5040209;28;804;-70
2022/09/26 06:23:33;;;;;;;;;;;20.50;71.40;;;;;;5073971;28;1897;-69
2022/09/26 06:25:59;;;;;;;;;;;20.50;71.40;;;;;;5041318;28;1247;-69
2022/09/26 06:28:25;;;;;;;;;;;20.50;71.40;;;;;;5042881;28;1571;-70
2022/09/26 06:30:51;;;;;;;;;;;20.50;71.30;;;;;;5037787;28;788;-70
2022/09/26 06:33:16;;;;;;;;;;;20.50;71.20;;;;;;5040740;28;1452;-70
2022/09/26 06:35:42;;;;;;;;;;;20.50;71.20;;;;;;5032089;28;1478;-68
2022/09/26 06:38:07;;;;;;;;;;;20.50;71.10;;;;;;5035974;28;1034;-69
2022/09/26 06:40:33;;;;;;;;;;;20.50;71.00;;;;;;5034581;28;1065;-67
2022/09/26 06:42:58;;;;;;;;;;;20.50;71.00;;;;;;5038175;28;1902;-67
2022/09/26 06:45:25;;;;;;;;;;;20.60;71.00;;;;;;5021100;28;1897;-66
2022/09/26 06:47:51;;;;;;;;;;;20.60;71.00;;;;;;5036088;28;1476;-66
2022/09/26 06:50:16;;;;;;;;;;;20.60;71.00;;;;;;5038299;28;1445;-66
2022/09/26 06:52:42;;;;;;;;;;;20.60;70.90;;;;;;5039047;28;840;-66
2022/09/26 06:55:08;;;;;;;;;;;20.60;70.90;;;;;;5035591;28;1256;-66
2022/09/26 06:57:41;;;;;;;;;;;20.60;70.90;;;;;;5035753;28;871;-69
2022/09/26 07:00:11;;;;;;;;;;;20.60;70.80;;;;;;5038883;28;866;-69
2022/09/26 07:02:36;;;;;;;;;;;20.60;70.80;;;;;;5039229;28;1973;-69
2022/09/26 07:05:02;;;;;;;;;;;20.60;70.80;;;;;;5038871;28;1269;-67
2022/09/26 07:07:29;;;;;;;;;;;20.60;70.80;;;;;;5039479;28;923;-67
2022/09/26 07:09:55;;;;;;;;;;;20.60;70.80;;;;;;5037452;28;927;-69
2022/09/26 07:12:21;;;;;;;;;;;20.60;70.70;;;;;;5034102;28;896;-69
2022/09/26 07:14:46;;;;;;;;;;;20.60;70.70;;;;;;5040513;28;1396;-69
2022/09/26 07:17:14;;;;;;;;;;;20.60;70.70;;;;;;5038695;28;890;-69
2022/09/26 07:19:40;;;;;;;;;;;20.60;71.50;;;;;;5037752;28;1376;-68
2022/09/26 07:22:06;;;;;;;;;;;20.60;70.80;;;;;;5041784;28;1902;-70
2022/09/26 07:24:33;;;;;;;;;;;20.60;70.70;;;;;;5043004;28;1214;-69
2022/09/26 07:27:00;;;;;;;;;;;20.60;70.80;;;;;;5036233;28;1289;-68
2022/09/26 07:29:25;;;;;;;;;;;20.60;70.70;;;;;;5038884;28;828;-69
2022/09/26 07:31:51;;;;;;;;;;;20.60;70.70;;;;;;5040156;28;2096;-69
2022/09/26 07:34:16;;;;;;;;;;;20.70;70.80;;;;;;5038965;28;1233;-67
2022/09/26 07:36:41;;;;;;;;;;;20.70;70.70;;;;;;5041456;28;1477;-68
2022/09/26 07:39:07;;;;;;;;;;;20.70;70.70;;;;;;5037564;28;1335;-69
2022/09/26 07:41:32;;;;;;;;;;;20.70;70.70;;;;;;5038220;28;1914;-69
2022/09/26 07:43:58;;;;;;;;;;;20.70;70.70;;;;;;5034705;28;872;-69
2022/09/26 07:51:55;;;;;;;;;;;20.70;70.50;;;;;;5031102;28;1639;-67
2022/09/26 07:54:20;;;;;;;;;;;20.80;70.60;;;;;;5035231;28;1312;-67
2022/09/26 07:56:46;;;;;;;;;;;20.80;70.50;;;;;;5037616;28;1810;-68
2022/09/26 07:59:11;;;;;;;;;;;20.80;70.50;;;;;;5038440;28;902;-69
2022/09/26 08:01:37;;;;;;;;;;;20.80;70.50;;;;;;5039050;28;1906;-69
2022/09/26 08:04:02;;;;;;;;;;;20.80;70.40;;;;;;5036390;28;851;-69
2022/09/26 08:06:28;;;;;;;;;;;20.80;70.50;;;;;;5038748;28;1269;-69
2022/09/26 08:08:54;;;;;;;;;;;20.80;70.40;;;;;;5039292;28;1195;-68
2022/09/26 08:11:19;;;;;;;;;;;20.80;70.40;;;;;;5037745;28;864;-68
2022/09/26 08:13:45;;;;;;;;;;;20.80;70.30;;;;;;5038006;28;995;-69
2022/09/26 08:16:13;;;;;;;;;;;20.90;70.40;;;;;;5033620;28;1264;-68
2022/09/26 08:18:38;;;;;;;;;;;20.80;70.30;;;;;;5038365;28;2158;-70
2022/09/26 08:21:04;;;;;;;;;;;20.90;70.30;;;;;;5037498;28;1329;-69
2022/09/26 08:23:30;;;;;;;;;;;20.90;70.30;;;;;;5040410;28;1930;-69
2022/09/26 08:25:55;;;;;;;;;;;20.80;70.20;;;;;;5040997;28;1455;-69
2022/09/26 08:28:21;;;;;;;;;;;20.80;70.20;;;;;;5035951;28;1364;-68
2022/09/26 08:30:46;;;;;;;;;;;20.80;70.20;;;;;;5031724;28;1375;-66
2022/09/26 08:33:12;;;;;;;;;;;20.80;70.20;;;;;;5035963;28;1453;-68
2022/09/26 08:35:37;;;;;;;;;;;20.80;70.20;;;;;;5037558;28;1274;-67
2022/09/26 08:38:03;;;;;;;;;;;20.90;70.20;;;;;;5036417;28;862;-67
2022/09/26 08:40:51;;;;;;;;;;;20.80;70.20;;;;;;5047494;28;852;-68
2022/09/26 08:43:28;;;;;;;;;;;20.90;70.20;;;;;;5036309;28;1918;-69
2022/09/26 08:48:45;;;;;;;;;;;20.90;70.20;;;;;;5037723;28;800;-69
2022/09/26 08:51:20;;;;;;;;;;;20.80;70.20;;;;;;5048460;28;891;-68
2022/09/26 08:53:47;;;;;;;;;;;20.80;70.10;;;;;;5023600;28;1184;-67
2022/09/26 08:56:16;;;;;;;;;;;20.80;70.10;;;;;;5040792;28;1289;-67
2022/09/26 08:58:42;;;;;;;;;;;20.90;70.20;;;;;;5037358;28;1241;-69
2022/09/26 09:01:12;;;;;;;;;;;20.90;70.20;;;;;;5033779;28;1050;-70
2022/09/26 09:03:44;;;;;;;;;;;20.90;70.30;;;;;;5049089;28;1906;-69
2022/09/26 09:06:10;;;;;;;;;;;20.90;70.30;;;;;;5041452;28;1276;-70
2022/09/26 09:08:39;;;;;;;;;;;20.90;70.40;;;;;;5040881;28;846;-70
2022/09/26 09:11:23;;;;;;;;;;;20.90;70.30;;;;;;5044678;28;1014;-68
2022/09/26 09:13:48;;;;;;;;;;;20.90;70.30;;;;;;5043566;28;998;-68
2022/09/26 09:16:20;;;;;;;;;;;20.90;70.40;;;;;;5040928;28;1260;-68
2022/09/26 09:18:55;;;;;;;;;;;20.90;70.40;;;;;;5044999;28;854;-68
2022/09/26 09:21:52;;;;;;;;;;;20.90;70.40;;;;;;5040395;28;1397;-68
2022/09/26 09:24:22;;;;;;;;;;;20.90;70.40;;;;;;5005624;28;1153;-69
2022/09/26 09:26:57;;;;;;;;;;;20.90;71.20;;;;;;5049547;28;1258;-68
2022/09/26 09:29:29;;;;;;;;;;;20.90;70.30;;;;;;5042150;28;1034;-69
2022/09/26 09:31:55;;;;;;;;;;;20.90;70.40;;;;;;5049970;28;1372;-68
2022/09/26 09:34:23;;;;;;;;;;;20.90;70.30;;;;;;5036992;28;895;-68
2022/09/26 09:36:50;;;;;;;;;;;20.90;70.40;;;;;;5033123;28;1268;-69
2022/09/26 09:39:22;;;;;;;;;;;20.90;70.40;;;;;;5038255;28;864;-70
2022/09/26 09:41:53;;;;;;;;;;;20.90;70.40;;;;;;5039354;28;1913;-70
2022/09/26 09:44:18;;;;;;;;;;;20.90;70.40;;;;;;5042310;28;931;-69
2022/09/26 09:46:44;;;;;;;;;;;20.90;70.40;;;;;;5042295;28;1256;-69
2022/09/26 09:49:13;;;;;;;;;;;20.90;70.40;;;;;;5035308;28;1156;-70
2022/09/26 09:51:46;;;;;;;;;;;20.90;70.40;;;;;;5042821;28;1264;-70
2022/09/26 09:54:28;;;;;;;;;;;20.90;70.40;;;;;;5028752;28;895;-68
2022/09/26 09:57:08;;;;;;;;;;;20.90;71.20;;;;;;5031194;28;1204;-68
2022/09/26 09:59:52;;;;;;;;;;;20.90;70.40;;;;;;5036616;28;962;-69
2022/09/26 10:02:33;;;;;;;;;;;20.90;70.50;;;;;;5037088;28;1910;-70
2022/09/26 10:05:02;;;;;;;;;;;20.90;70.50;;;;;;5051564;28;1391;-69
2022/09/26 10:07:28;;;;;;;;;;;20.90;70.50;;;;;;5034767;28;963;-70
2022/09/26 10:09:53;;;;;;;;;;;20.90;70.50;;;;;;5036284;28;1139;-70
2022/09/26 10:12:19;;;;;;;;;;;20.90;70.50;;;;;;5040298;28;926;-71
2022/09/26 10:14:49;;;;;;;;;;;20.90;70.50;;;;;;5045243;28;1375;-71
2022/09/26 10:17:16;;;;;;;;;;;20.90;70.50;;;;;;5036591;28;883;-71
2022/09/26 10:19:43;;;;;;;;;;;20.90;70.50;;;;;;5037904;28;881;-67
2022/09/26 10:22:14;;;;;;;;;;;20.90;70.50;;;;;;5071723;28;1897;-67
2022/09/26 10:24:42;;;;;;;;;;;20.90;69.40;;;;;;5038530;28;820;-67
2022/09/26 10:27:21;;;;;;;;;;;20.80;67.80;;;;;;5037326;28;929;-67
2022/09/26 10:29:56;;;;;;;;;;;20.80;67.20;;;;;;5036600;28;817;-68
2022/09/26 10:32:22;;;;;;;;;;;20.80;66.30;;;;;;5038138;28;1156;-67
2022/09/26 10:35:17;;;;;;;;;;;20.90;65.60;;;;;;5036540;28;1257;-67
2022/09/26 10:38:03;;;;;;;;;;;20.80;65.00;;;;;;5049271;28;942;-66
2022/09/26 10:40:44;;;;;;;;;;;20.80;64.60;;;;;;5030494;28;1259;-67
2022/09/26 10:43:19;;;;;;;;;;;20.80;64.10;;;;;;5024218;28;1918;-67
2022/09/26 10:45:48;;;;;;;;;;;20.80;63.90;;;;;;5042144;28;1257;-67
2022/09/26 10:48:17;;;;;;;;;;;20.80;63.70;;;;;;5038809;28;931;-68
2022/09/26 10:50:47;;;;;;;;;;;20.80;63.60;;;;;;5038633;28;842;-67
2022/09/26 10:53:12;;;;;;;;;;;20.80;63.60;;;;;;5039977;28;831;-67
2022/09/26 10:55:42;;;;;;;;;;;20.80;63.60;;;;;;5036397;28;1274;-68
2022/09/26 10:58:08;;;;;;;;;;;20.80;63.60;;;;;;5037505;28;1041;-67
2022/09/26 11:00:41;;;;;;;;;;;20.80;62.90;;;;;;5047031;28;888;-67
2022/09/26 11:03:10;;;;;;;;;;;20.80;62.20;;;;;;5060194;28;1898;-67
2022/09/26 11:08:25;;;;;;;;;;;20.80;61.50;;;;;;5038700;28;788;-67
2022/09/26 11:10:51;;;;;;;;;;;20.80;61.50;;;;;;5039133;28;867;-67
2022/09/26 11:13:21;;;;;;;;;;;20.80;60.80;;;;;;5039570;28;875;-67
2022/09/26 11:16:00;;;;;;;;;;;20.80;60.80;;;;;;5039978;28;1277;-68
2022/09/26 11:18:41;;;;;;;;;;;20.70;60.30;;;;;;5039241;28;828;-68
2022/09/26 11:21:17;;;;;;;;;;;20.80;59.20;;;;;;5038254;28;848;-68
2022/09/26 11:23:49;;;;;;;;;;;20.70;58.30;;;;;;5040888;28;1980;-67
2022/09/26 11:26:39;;;;;;;;;;;20.70;58.90;;;;;;5034971;28;1221;-67
2022/09/26 11:29:12;;;;;;;;;;;20.70;58.90;;;;;;5046105;28;1401;-67
2022/09/26 11:31:42;;;;;;;;;;;20.70;59.20;;;;;;5040568;28;1345;-67
2022/09/26 11:34:26;;;;;;;;;;;20.60;59.30;;;;;;5037023;28;826;-67
2022/09/26 11:37:10;;;;;;;;;;;20.70;59.20;;;;;;5029438;28;1424;-67
2022/09/26 11:39:39;;;;;;;;;;;20.60;59.30;;;;;;5044605;28;1025;-68
2022/09/26 11:42:24;;;;;;;;;;;20.60;59.40;;;;;;5033991;28;1902;-67
2022/09/26 11:44:54;;;;;;;;;;;20.60;59.20;;;;;;5044279;28;1264;-67
2022/09/26 11:47:23;;;;;;;;;;;20.60;59.00;;;;;;5036997;28;881;-68
2022/09/26 11:50:14;;;;;;;;;;;20.60;58.60;;;;;;5039382;28;927;-67
2022/09/26 11:52:45;;;;;;;;;;;20.60;58.90;;;;;;5017059;28;1182;-67
2022/09/26 11:55:14;;;;;;;;;;;20.60;59.50;;;;;;5037242;28;1304;-68
2022/09/26 11:57:50;;;;;;;;;;;20.60;59.40;;;;;;5039459;28;2104;-68
2022/09/26 12:00:23;;;;;;;;;;;20.60;59.40;;;;;;5039740;28;1302;-67
2022/09/26 12:02:54;;;;;;;;;;;20.60;59.90;;;;;;5037877;28;2261;-67
2022/09/26 12:05:24;;;;;;;;;;;20.60;59.50;;;;;;5038700;28;1381;-68
2022/09/26 12:08:02;;;;;;;;;;;20.60;59.70;;;;;;5036515;28;1161;-68
2022/09/26 12:10:30;;;;;;;;;;;20.60;59.50;;;;;;5038452;28;1062;-67
2022/09/26 12:13:14;;;;;;;;;;;20.50;59.80;;;;;;5049514;28;1046;-67
2022/09/26 12:15:40;;;;;;;;;;;20.60;59.60;;;;;;5039250;28;1538;-67
2022/09/26 12:18:14;;;;;;;;;;;20.50;59.70;;;;;;5043157;28;793;-67
2022/09/26 12:20:40;;;;;;;;;;;20.50;59.60;;;;;;5050404;28;871;-67
2022/09/26 12:23:13;;;;;;;;;;;20.50;60.00;;;;;;5041545;28;1890;-66
2022/09/26 12:25:48;;;;;;;;;;;20.50;59.80;;;;;;5042642;28;1256;-67
2022/09/26 12:28:32;;;;;;;;;;;20.50;59.40;;;;;;5044953;28;1291;-67
2022/09/26 12:30:58;;;;;;;;;;;20.50;59.30;;;;;;5044338;28;1271;-67
2022/09/26 12:33:42;;;;;;;;;;;20.50;59.40;;;;;;5040111;28;1410;-68
2022/09/26 12:36:11;;;;;;;;;;;20.50;59.10;;;;;;5043945;28;1256;-68
2022/09/26 12:38:43;;;;;;;;;;;20.50;59.20;;;;;;5042648;28;852;-68
2022/09/26 12:41:13;;;;;;;;;;;20.50;57.00;;;;;;5040334;28;1964;-71
2022/09/26 12:43:54;;;;;;;;;;;20.50;56.50;;;;;;5072594;28;1898;-71
2022/09/26 12:46:25;;;;;;;;;;;20.50;57.10;;;;;;5040907;28;1319;-71
2022/09/26 12:48:54;;;;;;;;;;;20.50;58.50;;;;;;5042711;28;1416;-71
2022/09/26 12:51:41;;;;;;;;;;;20.50;59.00;;;;;;5040478;28;1517;-71
2022/09/26 12:54:16;;;;;;;;;;;20.50;59.20;;;;;;5044928;28;854;-71
2022/09/26 12:56:44;;;;;;;;;;;20.50;59.60;;;;;;5040091;28;1255;-72
2022/09/26 12:59:30;;;;;;;;;;;20.50;60.10;;;;;;5043683;28;1505;-71
2022/09/26 13:01:57;;;;;;;;;;;20.50;60.40;;;;;;5046821;28;1914;-71
2022/09/26 13:04:41;;;;;;;;;;;20.50;60.70;;;;;;5042900;28;879;-71
2022/09/26 13:07:21;;;;;;;;;;;20.50;61.10;;;;;;5041609;28;1411;-71
2022/09/26 13:09:54;;;;;;;;;;;20.50;61.60;;;;;;5045082;28;859;-72
2022/09/26 13:12:30;;;;;;;;;;;20.50;61.80;;;;;;5041481;28;844;-71
2022/09/26 13:14:59;;;;;;;;;;;20.50;62.30;;;;;;5038386;28;1369;-70
2022/09/26 13:17:29;;;;;;;;;;;20.50;62.80;;;;;;5057946;28;1287;-71
2022/09/26 13:20:00;;;;;;;;;;;20.50;62.90;;;;;;5041097;28;878;-70
2022/09/26 13:22:44;;;;;;;;;;;20.50;63.00;;;;;;5042338;28;1898;-71
2022/09/26 13:25:10;;;;;;;;;;;20.60;63.20;;;;;;5035498;28;1253;-71
2022/09/26 13:27:37;;;;;;;;;;;20.60;63.50;;;;;;5040758;28;1266;-71
2022/09/26 13:30:11;;;;;;;;;;;20.60;63.50;;;;;;5068687;28;1283;-71
2022/09/26 13:32:42;;;;;;;;;;;20.60;64.00;;;;;;5041718;28;1085;-71
2022/09/26 13:35:18;;;;;;;;;;;20.60;64.10;;;;;;5041776;28;1319;-70
2022/09/26 13:37:46;;;;;;;;;;;20.60;64.20;;;;;;5040164;28;890;-71
2022/09/26 13:40:30;;;;;;;;;;;20.60;64.40;;;;;;5041112;28;839;-71
2022/09/26 13:43:17;;;;;;;;;;;20.60;64.60;;;;;;5042739;28;1905;-71
2022/09/26 13:45:59;;;;;;;;;;;20.60;64.70;;;;;;5013834;28;1267;-70
2022/09/26 13:48:27;;;;;;;;;;;20.60;65.00;;;;;;5058730;28;1307;-71
2022/09/26 13:50:59;;;;;;;;;;;20.60;65.20;;;;;;5041865;28;1206;-70
2022/09/26 13:53:27;;;;;;;;;;;20.60;65.30;;;;;;5038266;28;1483;-71
2022/09/26 13:56:13;;;;;;;;;;;20.60;65.30;;;;;;5047617;28;1356;-70
2022/09/26 13:58:38;;;;;;;;;;;20.60;65.40;;;;;;5041117;28;824;-71
2022/09/26 14:01:23;;;;;;;;;;;20.60;65.50;;;;;;5035581;28;967;-72
2022/09/26 14:03:48;;;;;;;;;;;20.60;65.70;;;;;;5037775;28;1922;-71
2022/09/26 14:06:17;;;;;;;;;;;20.60;65.70;;;;;;5044474;28;1267;-72
2022/09/26 14:09:24;;;;;;;;;;;20.60;65.80;;;;;;5033957;28;970;-70
2022/09/26 14:11:50;;;;;;;;;;;20.70;65.90;;;;;;5048494;28;1259;-71
2022/09/26 14:14:17;;;;;;;;;;;20.60;66.00;;;;;;5039902;28;923;-72
2022/09/26 14:16:42;;;;;;;;;;;20.70;66.20;;;;;;5019367;28;4790;-70
2022/09/26 14:19:15;;;;;;;;;;;20.60;66.20;;;;;;4989604;23;4978;-69
2022/09/26 14:21:43;;;;;;;;;;;20.60;66.30;;;;;;4994034;28;4145;-70
2022/09/26 14:24:35;;;;;;;;;;;20.70;66.40;;;;;;4978527;28;4250;-69
2022/09/26 14:27:09;;;;;;;;;;;20.60;66.50;;;;;;4985786;28;4505;-69
2022/09/26 14:29:43;;;;;;;;;;;20.70;66.80;;;;;;4999687;28;4105;-70
2022/09/26 14:32:11;;;;;;;;;;;20.70;66.80;;;;;;4983432;28;4427;-70
2022/09/26 14:34:53;;;;;;;;;;;20.70;66.90;;;;;;4984150;28;3897;-69
2022/09/26 14:37:24;;;;;;;;;;;20.70;66.90;;;;;;5002462;28;3608;-69
2022/09/26 14:39:58;;;;;;;;;;;20.70;67.20;;;;;;4988582;28;4748;-68
2022/09/26 14:42:24;;;;;;;;;;;20.70;67.30;;;;;;4978492;28;5100;-69
2022/09/26 14:44:59;;;;;;;;;;;20.70;67.40;;;;;;4981943;28;4058;-69
2022/09/26 14:47:26;;;;;;;;;;;20.70;67.70;;;;;;4991509;28;2020;-68
2022/09/26 14:49:52;;;;;;;;;;;20.70;67.80;;;;;;4973511;28;4713;-68
2022/09/26 14:52:18;;;;;;;;;;;20.70;68.00;;;;;;4994951;28;4390;-69
2022/09/26 14:54:44;;;;;;;;;;;20.70;67.90;;;;;;4984937;28;4117;-68
2022/09/26 14:57:20;;;;;;;;;;;20.70;68.20;;;;;;5005459;28;836;-70
2022/09/26 14:59:45;;;;;;;;;;;20.70;68.10;;;;;;4992549;28;852;-69
2022/09/26 15:02:17;;;;;;;;;;;20.70;68.70;;;;;;4993263;28;1966;-70
2022/09/26 15:04:44;;;;;;;;;;;20.70;68.40;;;;;;4991188;28;1307;-70
2022/09/26 15:07:11;;;;;;;;;;;20.70;68.50;;;;;;4992929;28;1105;-69
2022/09/26 15:09:41;;;;;;;;;;;20.70;68.70;;;;;;4990414;28;854;-69